createdAt,value
2018-08-19T00:00:49.626Z,62.5
2018-08-19T00:02:05.532Z,63.330078
2018-08-19T00:03:21.462Z,63.104248
2018-08-19T00:04:37.363Z,62.774658
2018-08-19T00:05:53.308Z,62.969971
2018-08-19T00:07:09.182Z,63.07373
2018-08-19T00:08:25.119Z,63.269043
2018-08-19T00:09:41.030Z,63.269043
2018-08-19T00:10:56.957Z,63.934326
2018-08-19T00:12:12.976Z,64.331055
2018-08-19T00:13:28.947Z,64.929199
2018-08-19T00:14:44.928Z,64.630127
2018-08-19T00:16:00.941Z,64.630127
2018-08-19T00:17:16.867Z,64.831543
2018-08-19T00:18:32.817Z,64.697266
2018-08-19T00:19:48.729Z,65.032959
2018-08-19T00:21:04.671Z,65.228271
2018-08-19T00:22:20.650Z,65.362549
2018-08-19T00:23:36.652Z,65.563965
2018-08-19T00:24:52.601Z,65.228271
2018-08-19T00:26:08.548Z,64.727783
2018-08-19T00:27:24.515Z,64.630127
2018-08-19T00:28:40.485Z,64.630127
2018-08-19T00:29:56.392Z,64.630127
2018-08-19T00:31:12.383Z,64.099121
2018-08-19T00:32:28.320Z,63.702393
2018-08-19T00:33:44.270Z,63.830566
2018-08-19T00:35:00.281Z,63.73291
2018-08-19T00:36:16.230Z,63.934326
2018-08-19T00:37:32.192Z,63.800049
2018-08-19T00:38:48.179Z,63.598633
2018-08-19T00:40:04.122Z,63.62915
2018-08-19T00:41:20.061Z,63.830566
2018-08-19T00:42:36.004Z,64.031982
2018-08-19T00:43:51.961Z,64.331055
2018-08-19T00:45:07.882Z,64.562988
2018-08-19T00:46:23.779Z,64.764404
2018-08-19T00:47:39.743Z,64.562988
2018-08-19T00:48:55.781Z,64.428711
2018-08-19T00:50:11.705Z,64.331055
2018-08-19T00:51:27.602Z,64.428711
2018-08-19T00:52:43.497Z,64.532471
2018-08-19T00:53:59.479Z,64.428711
2018-08-19T00:55:15.400Z,64.428711
2018-08-19T00:56:31.273Z,64.331055
2018-08-19T00:57:47.164Z,64.630127
2018-08-19T00:59:03.128Z,64.532471
2018-08-19T01:00:19.175Z,64.428711
2018-08-19T01:01:35.127Z,64.764404
2018-08-19T01:02:51.054Z,65.063477
2018-08-19T01:04:07.047Z,64.959717
2018-08-19T01:05:23.094Z,64.764404
2018-08-19T01:06:39.146Z,64.233398
2018-08-19T01:07:55.088Z,64.160156
2018-08-19T01:09:11.028Z,64.0625
2018-08-19T01:10:27.083Z,64.0625
2018-08-19T01:11:42.987Z,64.294434
2018-08-19T01:12:58.903Z,64.093018
2018-08-19T01:14:14.837Z,64.093018
2018-08-19T01:15:30.850Z,63.793945
2018-08-19T01:16:46.807Z,63.891602
2018-08-19T01:18:02.715Z,63.995361
2018-08-19T01:19:18.660Z,64.123535
2018-08-19T01:20:34.620Z,63.690186
2018-08-19T01:21:50.584Z,63.494873
2018-08-19T01:23:06.497Z,63.092041
2018-08-19T01:24:22.504Z,62.994385
2018-08-19T01:25:38.464Z,62.890625
2018-08-19T01:26:54.396Z,63.421631
2018-08-19T01:28:10.349Z,63.824463
2018-08-19T01:29:26.269Z,63.525391
2018-08-19T01:30:42.192Z,63.720703
2018-08-19T01:31:58.099Z,63.720703
2018-08-19T01:33:14.115Z,64.251709
2018-08-19T01:34:30.050Z,64.654541
2018-08-19T01:35:45.977Z,64.123535
2018-08-19T01:37:01.897Z,63.391113
2018-08-19T01:38:17.842Z,62.994385
2018-08-19T01:39:33.788Z,63.092041
2018-08-19T01:40:49.713Z,63.323975
2018-08-19T01:42:05.627Z,63.623047
2018-08-19T01:43:21.583Z,63.720703
2018-08-19T01:44:37.488Z,64.025879
2018-08-19T01:45:53.414Z,63.623047
2018-08-19T01:47:09.338Z,63.525391
2018-08-19T01:48:25.261Z,64.025879
2018-08-19T01:49:41.180Z,63.824463
2018-08-19T01:50:57.151Z,63.421631
2018-08-19T01:52:13.055Z,63.323975
2018-08-19T01:53:29.001Z,63.525391
2018-08-19T01:54:44.986Z,63.824463
2018-08-19T01:56:00.901Z,64.251709
2018-08-19T01:57:16.838Z,64.654541
2018-08-19T01:58:32.834Z,65.155029
2018-08-19T01:59:48.784Z,65.05127
2018-08-19T02:01:04.734Z,64.953613
2018-08-19T02:02:20.627Z,64.221191
2018-08-19T02:03:36.592Z,63.922119
2018-08-19T02:04:52.564Z,64.123535
2018-08-19T02:06:08.479Z,64.154053
2018-08-19T02:07:24.414Z,64.056396
2018-08-19T02:08:40.329Z,64.453125
2018-08-19T02:09:56.307Z,65.185547
2018-08-19T02:11:12.247Z,65.185547
2018-08-19T02:12:28.170Z,65.087891
2018-08-19T02:13:44.133Z,65.087891
2018-08-19T02:15:01.101Z,65.588379
2018-08-19T02:16:17.092Z,65.283203
2018-08-19T02:17:33.041Z,65.283203
2018-08-19T02:18:48.964Z,64.855957
2018-08-19T02:20:04.914Z,64.453125
2018-08-19T02:21:20.823Z,64.752197
2018-08-19T02:22:36.768Z,64.886475
2018-08-19T02:23:52.657Z,65.087891
2018-08-19T02:25:08.594Z,65.588379
2018-08-19T02:26:24.559Z,64.855957
2018-08-19T02:27:40.492Z,64.752197
2018-08-19T02:28:56.398Z,64.654541
2018-08-19T02:30:12.305Z,65.185547
2018-08-19T02:31:28.262Z,64.752197
2018-08-19T02:32:44.165Z,64.855957
2018-08-19T02:34:00.132Z,64.453125
2018-08-19T02:35:16.046Z,64.355469
2018-08-19T02:36:31.990Z,64.355469
2018-08-19T02:37:47.996Z,64.984131
2018-08-19T02:39:03.917Z,64.752197
2018-08-19T02:40:19.898Z,65.484619
2018-08-19T02:41:35.840Z,65.917969
2018-08-19T02:42:51.772Z,65.820312
2018-08-19T02:44:07.708Z,66.015625
2018-08-19T02:45:23.614Z,65.887451
2018-08-19T02:46:39.654Z,65.686035
2018-08-19T02:47:55.599Z,65.484619
2018-08-19T02:49:11.485Z,65.386963
2018-08-19T02:50:27.447Z,65.686035
2018-08-19T02:51:43.410Z,65.917969
2018-08-19T02:52:59.289Z,66.418457
2018-08-19T02:54:15.210Z,66.119385
2018-08-19T02:55:31.133Z,66.516113
2018-08-19T02:56:47.101Z,67.254639
2018-08-19T02:58:03.009Z,67.785645
2018-08-19T02:59:18.940Z,67.687988
2018-08-19T03:00:34.850Z,67.687988
2018-08-19T03:01:50.801Z,67.883301
2018-08-19T03:03:06.726Z,67.883301
2018-08-19T03:04:22.655Z,67.352295
2018-08-19T03:05:38.581Z,66.619873
2018-08-19T03:06:54.500Z,66.619873
2018-08-19T03:08:10.456Z,66.516113
2018-08-19T03:09:26.362Z,66.516113
2018-08-19T03:10:42.282Z,65.783691
2018-08-19T03:11:58.189Z,66.088867
2018-08-19T03:13:14.186Z,66.619873
2018-08-19T03:14:30.048Z,66.619873
2018-08-19T03:15:45.965Z,67.150879
2018-08-19T03:17:01.861Z,67.352295
2018-08-19T03:18:17.763Z,66.717529
2018-08-19T03:19:33.708Z,66.821289
2018-08-19T03:20:49.616Z,66.918945
2018-08-19T03:22:05.569Z,67.218018
2018-08-19T03:23:21.512Z,66.918945
2018-08-19T03:24:37.568Z,67.053223
2018-08-19T03:25:53.486Z,67.150879
2018-08-19T03:27:09.452Z,66.918945
2018-08-19T03:28:25.373Z,67.053223
2018-08-19T03:29:41.332Z,67.687988
2018-08-19T03:30:57.281Z,67.883301
2018-08-19T03:32:13.267Z,67.651367
2018-08-19T03:33:29.172Z,67.651367
2018-08-19T03:34:45.099Z,68.719482
2018-08-19T03:36:00.992Z,68.487549
2018-08-19T03:37:16.903Z,67.956543
2018-08-19T03:38:33.801Z,67.321777
2018-08-19T03:39:49.761Z,67.120361
2018-08-19T03:41:05.698Z,66.619873
2018-08-19T03:42:21.639Z,66.918945
2018-08-19T03:43:37.560Z,67.352295
2018-08-19T03:44:53.495Z,67.755127
2018-08-19T03:46:09.424Z,67.987061
2018-08-19T03:47:25.364Z,68.389893
2018-08-19T03:48:41.325Z,68.719482
2018-08-19T03:49:58.261Z,69.75708
2018-08-19T03:51:14.140Z,69.458008
2018-08-19T03:52:30.061Z,69.555664
2018-08-19T03:53:46.013Z,69.75708
2018-08-19T03:55:01.935Z,69.354248
2018-08-19T03:56:17.859Z,69.256592
2018-08-19T03:57:33.765Z,69.122314
2018-08-19T03:58:49.718Z,69.256592
2018-08-19T04:00:05.628Z,69.354248
2018-08-19T04:01:21.519Z,68.823242
2018-08-19T04:02:37.425Z,69.152832
2018-08-19T04:03:53.373Z,69.024658
2018-08-19T04:05:10.259Z,69.458008
2018-08-19T04:06:26.154Z,69.75708
2018-08-19T04:07:42.087Z,69.75708
2018-08-19T04:08:58.052Z,69.555664
2018-08-19T04:10:13.987Z,69.75708
2018-08-19T04:11:29.905Z,70.257568
2018-08-19T04:12:45.873Z,70.794678
2018-08-19T04:14:01.821Z,69.921875
2018-08-19T04:15:17.728Z,69.091797
2018-08-19T04:16:33.665Z,68.585205
2018-08-19T04:17:49.650Z,68.487549
2018-08-19T04:19:05.579Z,68.688965
2018-08-19T04:20:21.605Z,68.786621
2018-08-19T04:21:37.559Z,68.786621
2018-08-19T04:22:53.488Z,68.151855
2018-08-19T04:24:09.432Z,68.286133
2018-08-19T04:25:25.450Z,68.389893
2018-08-19T04:26:41.382Z,68.151855
2018-08-19T04:27:57.299Z,67.956543
2018-08-19T04:29:13.258Z,67.852783
2018-08-19T04:30:29.184Z,68.286133
2018-08-19T04:31:45.101Z,68.286133
2018-08-19T04:33:01.057Z,68.286133
2018-08-19T04:34:17.036Z,68.920898
2018-08-19T04:35:32.924Z,68.786621
2018-08-19T04:36:48.828Z,69.219971
2018-08-19T04:38:04.882Z,69.122314
2018-08-19T04:39:20.826Z,69.421387
2018-08-19T04:40:36.751Z,69.726562
2018-08-19T04:41:52.772Z,69.75708
2018-08-19T04:43:08.703Z,69.525146
2018-08-19T04:44:24.665Z,68.786621
2018-08-19T04:45:40.564Z,69.219971
2018-08-19T04:46:56.482Z,69.219971
2018-08-19T04:48:12.418Z,68.688965
2018-08-19T04:49:28.346Z,68.688965
2018-08-19T04:50:44.300Z,68.890381
2018-08-19T04:52:00.231Z,69.024658
2018-08-19T04:53:16.157Z,69.622803
2018-08-19T04:54:32.052Z,69.122314
2018-08-19T04:55:48.001Z,69.32373
2018-08-19T04:57:03.938Z,69.622803
2018-08-19T04:58:19.888Z,69.726562
2018-08-19T04:59:35.799Z,69.622803
2018-08-19T05:00:51.724Z,69.091797
2018-08-19T05:02:07.705Z,68.585205
2018-08-19T05:03:23.628Z,68.389893
2018-08-19T05:04:39.560Z,69.219971
2018-08-19T05:05:55.495Z,68.688965
2018-08-19T05:07:11.440Z,68.890381
2018-08-19T05:08:27.535Z,68.786621
2018-08-19T05:09:43.359Z,68.652344
2018-08-19T05:10:59.297Z,68.786621
2018-08-19T05:12:15.217Z,69.525146
2018-08-19T05:13:31.174Z,69.525146
2018-08-19T05:14:47.101Z,69.824219
2018-08-19T05:16:03.028Z,69.421387
2018-08-19T05:17:19.141Z,69.091797
2018-08-19T05:18:35.040Z,68.988037
2018-08-19T05:19:50.980Z,68.688965
2018-08-19T05:21:06.911Z,69.525146
2018-08-19T05:22:22.941Z,68.786621
2018-08-19T05:23:38.969Z,68.786621
2018-08-19T05:24:54.944Z,69.32373
2018-08-19T05:26:11.032Z,68.652344
2018-08-19T05:27:26.996Z,68.786621
2018-08-19T05:28:42.917Z,69.390869
2018-08-19T05:29:58.836Z,69.287109
2018-08-19T05:31:14.758Z,69.287109
2018-08-19T05:32:30.838Z,68.554688
2018-08-19T05:33:46.793Z,68.457031
2018-08-19T05:35:02.725Z,68.353271
2018-08-19T05:36:18.639Z,68.353271
2018-08-19T05:37:34.607Z,67.956543
2018-08-19T05:38:50.495Z,68.353271
2018-08-19T05:40:06.464Z,68.151855
2018-08-19T05:41:22.420Z,67.822266
2018-08-19T05:42:38.408Z,67.62085
2018-08-19T05:43:54.338Z,67.822266
2018-08-19T05:45:10.244Z,68.054199
2018-08-19T05:46:26.185Z,67.919922
2018-08-19T05:47:42.149Z,68.255615
2018-08-19T05:48:58.059Z,68.121338
2018-08-19T05:50:13.941Z,67.919922
2018-08-19T05:51:29.856Z,68.023682
2018-08-19T05:52:45.793Z,68.218994
2018-08-19T05:54:01.747Z,67.919922
2018-08-19T05:55:17.686Z,67.919922
2018-08-19T05:56:33.623Z,68.554688
2018-08-19T05:57:49.604Z,68.457031
2018-08-19T05:59:05.588Z,68.457031
2018-08-19T06:00:21.685Z,68.218994
2018-08-19T06:01:37.614Z,67.718506
2018-08-19T06:02:53.550Z,67.718506
2018-08-19T06:04:09.539Z,67.1875
2018-08-19T06:05:25.439Z,67.62085
2018-08-19T06:06:41.412Z,67.218018
2018-08-19T06:07:57.364Z,67.523193
2018-08-19T06:09:13.308Z,67.755127
2018-08-19T06:10:29.253Z,67.956543
2018-08-19T06:11:45.316Z,68.151855
2018-08-19T06:13:01.246Z,67.718506
2018-08-19T06:14:17.194Z,67.29126
2018-08-19T06:15:33.140Z,67.1875
2018-08-19T06:16:49.044Z,66.784668
2018-08-19T06:18:05.024Z,66.589355
2018-08-19T06:19:20.998Z,66.28418
2018-08-19T06:20:37.063Z,65.783691
2018-08-19T06:21:53.020Z,65.753174
2018-08-19T06:23:09.005Z,65.484619
2018-08-19T06:24:24.940Z,65.454102
2018-08-19T06:25:40.900Z,65.356445
2018-08-19T06:28:37.368Z,64.624023
2018-08-19T06:29:53.257Z,64.624023
2018-08-19T06:31:09.293Z,64.72168
2018-08-19T06:32:25.081Z,64.624023
2018-08-19T06:33:41.062Z,65.020752
2018-08-19T06:34:57.195Z,64.923096
2018-08-19T06:36:12.880Z,64.923096
2018-08-19T06:37:28.852Z,65.020752
2018-08-19T06:38:44.802Z,65.356445
2018-08-19T06:40:00.718Z,65.655518
2018-08-19T06:41:16.688Z,65.655518
2018-08-19T06:42:32.656Z,65.454102
2018-08-19T06:43:49.565Z,65.52124
2018-08-19T06:45:06.390Z,65.222168
2018-08-19T06:46:22.325Z,64.624023
2018-08-19T06:47:38.283Z,65.222168
2018-08-19T06:48:54.462Z,65.124512
2018-08-19T06:50:10.438Z,65.020752
2018-08-19T06:51:26.435Z,64.923096
2018-08-19T06:52:42.483Z,65.020752
2018-08-19T06:53:58.425Z,64.794922
2018-08-19T06:55:14.423Z,64.593506
2018-08-19T06:56:30.364Z,64.794922
2018-08-19T06:57:46.298Z,64.489746
2018-08-19T06:59:02.226Z,64.294434
2018-08-19T07:00:18.246Z,64.593506
2018-08-19T07:01:34.231Z,64.489746
2018-08-19T07:02:50.156Z,64.593506
2018-08-19T07:04:06.210Z,64.160156
2018-08-19T07:05:22.160Z,63.964844
2018-08-19T07:06:39.076Z,63.659668
2018-08-19T07:07:55.013Z,64.0625
2018-08-19T07:09:10.945Z,65.093994
2018-08-19T07:10:26.894Z,65.093994
2018-08-19T07:11:42.853Z,65.759277
2018-08-19T07:12:58.769Z,65.258789
2018-08-19T07:14:14.669Z,65.991211
2018-08-19T07:15:30.730Z,65.393066
2018-08-19T07:16:46.649Z,65.393066
2018-08-19T07:18:02.567Z,66.094971
2018-08-19T07:19:18.507Z,66.589355
2018-08-19T07:20:34.582Z,66.290283
2018-08-19T07:21:50.592Z,65.863037
2018-08-19T07:23:06.552Z,65.460205
2018-08-19T07:24:22.459Z,65.490723
2018-08-19T07:25:38.419Z,65.19165
2018-08-19T07:26:54.430Z,65.594482
2018-08-19T07:28:10.396Z,66.522217
2018-08-19T07:29:26.391Z,66.192627
2018-08-19T07:30:42.340Z,66.290283
2018-08-19T07:31:58.323Z,66.094971
2018-08-19T07:33:14.340Z,65.490723
2018-08-19T07:34:30.275Z,65.692139
2018-08-19T07:35:46.250Z,66.021729
2018-08-19T07:37:02.378Z,65.625
2018-08-19T07:38:18.172Z,65.625
2018-08-19T07:39:34.139Z,65.692139
2018-08-19T07:40:50.112Z,65.289307
2018-08-19T07:42:06.081Z,64.39209
2018-08-19T07:43:22.094Z,64.892578
2018-08-19T07:44:39.035Z,65.393066
2018-08-19T07:45:55.020Z,65.393066
2018-08-19T07:47:11.008Z,65.093994
2018-08-19T07:48:26.945Z,64.459229
2018-08-19T07:49:42.926Z,64.660645
2018-08-19T07:50:58.872Z,65.130615
2018-08-19T07:52:14.859Z,65.032959
2018-08-19T07:53:30.957Z,65.228271
2018-08-19T07:54:46.944Z,65.130615
2018-08-19T07:56:03.923Z,65.362549
2018-08-19T07:57:19.907Z,65.460205
2018-08-19T07:58:35.927Z,65.759277
2018-08-19T07:59:51.862Z,64.727783
2018-08-19T08:01:07.855Z,64.727783
2018-08-19T08:02:23.843Z,64.099121
2018-08-19T08:03:39.821Z,63.934326
2018-08-19T08:04:55.797Z,63.500977
2018-08-19T08:06:11.855Z,63.598633
2018-08-19T08:07:28.307Z,63.62915
2018-08-19T08:08:44.446Z,63.531494
2018-08-19T08:10:00.399Z,63.232422
2018-08-19T08:11:16.363Z,62.902832
2018-08-19T08:12:32.273Z,63.104248
2018-08-19T08:13:48.223Z,63.40332
2018-08-19T08:15:04.343Z,62.475586
2018-08-19T08:16:20.875Z,62.670898
2018-08-19T08:17:36.925Z,62.969971
2018-08-19T08:18:52.901Z,62.872314
2018-08-19T08:20:09.064Z,62.573242
2018-08-19T08:21:25.240Z,62.371826
2018-08-19T08:22:40.999Z,63.000488
2018-08-19T08:23:56.944Z,63.201904
2018-08-19T08:25:12.969Z,62.969971
2018-08-19T08:26:28.942Z,62.573242
2018-08-19T08:27:44.895Z,62.475586
2018-08-19T08:29:01.097Z,62.774658
2018-08-19T08:30:17.122Z,63.07373
2018-08-19T08:31:33.112Z,62.774658
2018-08-19T08:32:49.050Z,63.372803
2018-08-19T08:34:05.049Z,63.201904
2018-08-19T08:35:21.072Z,63.903809
2018-08-19T08:36:37.019Z,63.702393
2018-08-19T08:37:53.045Z,63.94043
2018-08-19T08:39:09.002Z,62.774658
2018-08-19T08:40:24.991Z,63.568115
2018-08-19T08:41:40.980Z,63.439941
2018-08-19T08:42:57.766Z,62.640381
2018-08-19T08:44:14.798Z,63.269043
2018-08-19T08:45:30.756Z,63.769531
2018-08-19T08:46:46.704Z,62.542725
2018-08-19T08:48:02.813Z,62.414551
2018-08-19T08:49:18.723Z,62.310791
2018-08-19T08:50:34.768Z,62.774658
2018-08-19T08:51:50.851Z,63.568115
2018-08-19T08:53:06.881Z,63.269043
2018-08-19T08:54:22.798Z,62.774658
2018-08-19T08:55:38.810Z,63.372803
2018-08-19T08:56:54.864Z,63.671875
2018-08-19T08:58:10.857Z,63.238525
2018-08-19T08:59:26.948Z,62.939453
2018-08-19T09:00:42.999Z,62.341309
2018-08-19T09:01:59.082Z,62.939453
2018-08-19T09:03:15.167Z,62.841797
2018-08-19T09:04:31.211Z,62.341309
2018-08-19T09:05:48.117Z,62.445068
2018-08-19T09:07:04.071Z,62.774658
2018-08-19T09:08:20.090Z,62.744141
2018-08-19T09:09:36.065Z,62.774658
2018-08-19T09:10:52.162Z,62.640381
2018-08-19T09:12:08.194Z,62.744141
2018-08-19T09:13:24.225Z,61.61499
2018-08-19T09:14:41.201Z,61.517334
2018-08-19T09:15:57.157Z,61.114502
2018-08-19T09:17:13.221Z,61.413574
2018-08-19T09:18:29.245Z,61.218262
2018-08-19T09:19:45.211Z,62.072754
2018-08-19T09:21:01.154Z,61.846924
2018-08-19T09:22:17.120Z,61.914062
2018-08-19T09:23:33.138Z,62.011719
2018-08-19T09:24:49.104Z,62.115479
2018-08-19T09:26:05.075Z,61.187744
2018-08-19T09:27:21.105Z,62.243652
2018-08-19T09:30:17.952Z,61.016846
2018-08-19T09:31:34.000Z,60.791016
2018-08-19T09:32:50.067Z,60.192871
2018-08-19T09:34:05.982Z,60.5896
2018-08-19T09:35:21.958Z,60.5896
2018-08-19T09:36:37.966Z,60.687256
2018-08-19T09:37:53.953Z,60.791016
2018-08-19T09:39:09.949Z,59.991455
2018-08-19T09:40:26.001Z,61.114502
2018-08-19T09:41:41.949Z,61.187744
2018-08-19T09:42:57.958Z,60.290527
2018-08-19T09:44:13.960Z,60.986328
2018-08-19T09:45:30.034Z,61.38916
2018-08-19T09:46:45.995Z,61.688232
2018-08-19T09:48:02.134Z,60.662842
2018-08-19T09:49:17.986Z,60.986328
2018-08-19T09:50:33.961Z,61.712646
2018-08-19T09:51:49.966Z,62.145996
2018-08-19T09:53:06.856Z,62.384033
2018-08-19T09:54:22.823Z,61.218262
2018-08-19T09:55:38.827Z,61.38916
2018-08-19T09:56:54.940Z,60.986328
2018-08-19T09:58:10.902Z,60.491943
2018-08-19T09:59:26.903Z,60.760498
2018-08-19T10:00:42.866Z,60.827637
2018-08-19T10:01:58.834Z,60.632324
2018-08-19T10:03:14.791Z,60.534668
2018-08-19T10:04:30.730Z,60.333252
2018-08-19T10:05:46.797Z,60.931396
2018-08-19T10:07:02.912Z,60.333252
2018-08-19T10:08:18.945Z,60.632324
2018-08-19T10:09:34.900Z,61.627197
2018-08-19T10:12:32.528Z,60.162354
2018-08-19T10:13:49.514Z,60.760498
2018-08-19T10:15:05.465Z,60.72998
2018-08-19T10:16:21.421Z,61.254883
2018-08-19T10:17:37.423Z,61.254883
2018-08-19T10:18:53.363Z,60.430908
2018-08-19T10:20:09.334Z,60.107422
2018-08-19T10:21:25.351Z,60.205078
2018-08-19T10:22:41.472Z,60.107422
2018-08-19T10:23:57.422Z,59.735107
2018-08-19T10:25:13.389Z,61.413574
2018-08-19T10:26:29.398Z,62.084961
2018-08-19T10:27:45.343Z,61.486816
2018-08-19T10:29:01.311Z,62.683105
2018-08-19T10:30:17.255Z,61.328125
2018-08-19T10:31:33.242Z,60.858154
2018-08-19T10:32:50.278Z,61.029053
2018-08-19T10:34:06.313Z,60.601807
2018-08-19T10:35:22.274Z,60.003662
2018-08-19T10:36:38.243Z,60.858154
2018-08-19T10:37:54.194Z,61.328125
2018-08-19T10:39:10.259Z,60.601807
2018-08-19T10:40:26.179Z,60.400391
2018-08-19T10:41:42.152Z,60.205078
2018-08-19T10:42:58.121Z,59.277344
2018-08-19T10:44:14.092Z,59.381104
2018-08-19T10:45:30.246Z,59.70459
2018-08-19T10:46:46.299Z,60.333252
2018-08-19T10:48:02.275Z,60.827637
2018-08-19T10:49:18.272Z,60.302734
2018-08-19T10:50:34.266Z,60.076904
2018-08-19T10:51:50.199Z,59.47876
2018-08-19T10:53:06.242Z,59.576416
2018-08-19T10:54:22.218Z,59.875488
2018-08-19T10:55:38.266Z,59.680176
2018-08-19T10:56:54.201Z,60.174561
2018-08-19T10:58:10.195Z,60.699463
2018-08-19T10:59:26.129Z,59.875488
2018-08-19T11:00:42.230Z,59.70459
2018-08-19T11:01:58.196Z,60.205078
2018-08-19T11:03:14.185Z,60.900879
2018-08-19T11:04:30.170Z,59.94873
2018-08-19T11:05:46.188Z,59.820557
2018-08-19T11:07:02.162Z,59.14917
2018-08-19T11:08:18.372Z,60.144043
2018-08-19T11:11:14.808Z,59.14917
2018-08-19T11:12:30.776Z,59.25293
2018-08-19T11:13:46.692Z,59.47876
2018-08-19T11:15:02.614Z,60.375977
2018-08-19T11:16:18.542Z,60.375977
2018-08-19T11:17:35.513Z,60.076904
2018-08-19T11:18:51.502Z,61.297607
2018-08-19T11:20:07.387Z,60.174561
2018-08-19T11:21:23.377Z,60.302734
2018-08-19T11:22:39.308Z,60.375977
2018-08-19T11:23:55.336Z,60.375977
2018-08-19T11:25:11.348Z,59.851074
2018-08-19T11:26:27.274Z,59.448242
2018-08-19T11:27:43.248Z,58.483887
2018-08-19T11:28:59.309Z,58.856201
2018-08-19T11:30:15.332Z,58.728027
2018-08-19T11:31:31.328Z,58.557129
2018-08-19T11:32:47.266Z,58.331299
2018-08-19T11:34:03.375Z,58.526611
2018-08-19T11:35:19.326Z,58.569336
2018-08-19T11:36:35.302Z,58.270264
2018-08-19T11:37:51.296Z,58.044434
2018-08-19T11:39:07.240Z,58.24585
2018-08-19T11:40:23.317Z,58.569336
2018-08-19T11:41:39.284Z,58.319092
2018-08-19T11:42:55.260Z,58.117676
2018-08-19T11:44:11.232Z,58.24585
2018-08-19T11:45:27.225Z,58.569336
2018-08-19T11:46:43.212Z,58.868408
2018-08-19T11:47:59.221Z,59.16748
2018-08-19T11:49:15.170Z,58.740234
2018-08-19T11:50:31.108Z,58.770752
2018-08-19T11:51:47.118Z,58.343506
2018-08-19T11:53:03.087Z,59.069824
2018-08-19T11:54:19.040Z,58.374023
2018-08-19T11:55:34.997Z,59.069824
2018-08-19T11:56:51.027Z,58.319092
2018-08-19T11:58:06.944Z,57.293701
2018-08-19T11:59:22.971Z,56.402588
2018-08-19T12:00:39.085Z,56.506348
2018-08-19T12:01:55.037Z,56.604004
2018-08-19T12:03:10.981Z,57.324219
2018-08-19T12:04:26.936Z,56.903076
2018-08-19T12:05:42.894Z,56.70166
2018-08-19T12:06:58.865Z,57.922363
2018-08-19T12:08:14.845Z,56.555176
2018-08-19T12:09:30.786Z,56.262207
2018-08-19T12:10:46.695Z,57.946777
2018-08-19T12:12:02.686Z,56.402588
2018-08-19T12:13:18.663Z,56.47583
2018-08-19T12:14:34.603Z,55.389404
2018-08-19T12:15:50.546Z,58.02002
2018-08-19T12:17:06.542Z,57.397461
2018-08-19T12:18:22.504Z,57.69043
2018-08-19T12:19:38.490Z,58.148193
2018-08-19T12:20:54.434Z,58.24585
2018-08-19T12:22:10.390Z,58.813477
2018-08-19T12:23:26.346Z,59.082031
2018-08-19T12:24:42.287Z,58.587646
2018-08-19T12:25:58.216Z,58.02002
2018-08-19T12:27:14.138Z,59.082031
2018-08-19T12:30:10.752Z,57.763672
2018-08-19T12:31:26.725Z,57.818604
2018-08-19T12:32:42.696Z,57.818604
2018-08-19T12:33:58.697Z,57.794189
2018-08-19T12:35:14.672Z,57.23877
2018-08-19T12:36:30.615Z,55.657959
2018-08-19T12:37:46.614Z,55.010986
2018-08-19T12:39:02.613Z,53.894043
2018-08-19T12:40:18.556Z,52.01416
2018-08-19T12:41:34.477Z,52.636719
2018-08-19T12:42:50.449Z,54.217529
2018-08-19T12:44:06.520Z,54.388428
2018-08-19T12:45:22.553Z,53.771973
2018-08-19T12:46:38.477Z,51.989746
2018-08-19T12:47:54.490Z,52.435303
2018-08-19T12:49:10.463Z,55.133057
2018-08-19T12:50:26.511Z,54.980469
2018-08-19T12:51:42.440Z,54.711914
2018-08-19T12:52:58.416Z,55.334473
2018-08-19T12:54:14.342Z,55.133057
2018-08-19T12:55:30.313Z,55.303955
2018-08-19T12:56:46.323Z,55.999756
2018-08-19T12:58:02.316Z,56.420898
2018-08-19T12:59:18.290Z,57.342529
2018-08-19T13:00:34.291Z,57.141113
2018-08-19T13:03:30.722Z,57.977295
2018-08-19T13:04:46.791Z,56.964111
2018-08-19T13:06:02.739Z,56.341553
2018-08-19T13:07:18.672Z,56.439209
2018-08-19T13:08:34.636Z,55.9021
2018-08-19T13:09:50.679Z,56.494141
2018-08-19T13:11:06.628Z,56.634521
2018-08-19T13:12:22.605Z,56.835938
2018-08-19T13:13:38.562Z,57.03125
2018-08-19T13:14:54.517Z,55.426025
2018-08-19T13:16:10.464Z,55.969238
2018-08-19T13:17:26.415Z,56.665039
2018-08-19T13:18:42.380Z,55.999756
2018-08-19T13:19:58.290Z,55.505371
2018-08-19T13:21:14.271Z,57.019043
2018-08-19T13:22:30.234Z,56.988525
2018-08-19T13:23:46.148Z,55.79834
2018-08-19T13:25:02.177Z,55.407715
2018-08-19T13:26:18.189Z,55.969238
2018-08-19T13:27:34.172Z,55.377197
2018-08-19T13:28:50.168Z,54.095459
2018-08-19T13:30:06.089Z,54.6875
2018-08-19T13:31:22.057Z,54.785156
2018-08-19T13:32:38.040Z,54.785156
2018-08-19T13:33:53.964Z,53.967285
2018-08-19T13:35:09.910Z,53.771973
2018-08-19T13:36:26.009Z,52.880859
2018-08-19T13:37:41.990Z,54.760742
2018-08-19T13:38:57.964Z,54.559326
2018-08-19T13:40:13.999Z,53.051758
2018-08-19T13:41:29.998Z,51.843262
2018-08-19T13:42:45.975Z,51.049805
2018-08-19T13:44:01.905Z,51.641846
2018-08-19T13:45:17.901Z,51.721191
2018-08-19T13:46:33.808Z,51.098633
2018-08-19T13:47:49.787Z,51.324463
2018-08-19T13:49:05.739Z,51.324463
2018-08-19T13:50:21.659Z,51.202393
2018-08-19T13:51:37.668Z,51.495361
2018-08-19T13:52:53.797Z,51.794434
2018-08-19T13:54:09.713Z,51.89209
2018-08-19T13:55:25.724Z,51.89209
2018-08-19T13:56:41.693Z,52.087402
2018-08-19T13:57:57.724Z,51.373291
2018-08-19T13:59:13.698Z,50.408936
2018-08-19T14:00:29.653Z,51.098633
2018-08-19T14:01:45.651Z,50.805664
2018-08-19T14:03:01.638Z,51.77002
2018-08-19T14:04:17.578Z,50.805664
2018-08-19T14:05:33.631Z,51.202393
2018-08-19T14:06:49.782Z,52.557373
2018-08-19T14:08:05.766Z,52.655029
2018-08-19T14:09:21.972Z,52.947998
2018-08-19T14:10:37.995Z,53.839111
2018-08-19T14:11:54.045Z,52.282715
2018-08-19T14:13:10.157Z,54.211426
2018-08-19T14:14:26.234Z,53.845215
2018-08-19T14:15:42.360Z,55.029297
2018-08-19T14:16:58.400Z,55.596924
2018-08-19T14:18:14.570Z,56.384277
2018-08-19T14:19:30.533Z,54.309082
2018-08-19T14:20:46.539Z,54.510498
2018-08-19T14:22:02.481Z,54.901123
2018-08-19T14:23:18.433Z,54.211426
2018-08-19T14:24:34.438Z,54.11377
2018-08-19T14:25:50.363Z,52.01416
2018-08-19T14:27:06.325Z,52.703857
2018-08-19T14:28:22.446Z,54.089355
2018-08-19T14:29:38.374Z,53.295898
2018-08-19T14:30:55.365Z,51.495361
2018-08-19T14:32:12.574Z,49.523926
2018-08-19T14:33:28.548Z,50.311279
2018-08-19T14:34:44.458Z,51.690674
2018-08-19T14:36:00.422Z,52.484131
2018-08-19T14:37:16.419Z,53.051758
2018-08-19T14:38:32.592Z,54.455566
2018-08-19T14:39:48.562Z,53.570557